Time;durP1;ratioP1;P1;durP2;ratioP2;P2;SDS_P1;SDS_P2;PMS_P1;PMS_P2;Temp;Humidity;BMP_temperature;BMP_pressure;BME280_temperature;BME280_humidity;BME280_pressure;Samples;Min_cycle;Max_cycle;Signal;HPM_P1;HPM_P2
2023/01/27 00:02:15;;;;;;;9.23;3.78;;;;;;;;;;6119394;23;20077;-79
2023/01/27 00:04:42;;;;;;;10.45;3.53;;;;;;;;;;6107421;23;20023;-78
2023/01/27 00:07:10;;;;;;;7.75;3.75;;;;;;;;;;6106011;23;20440;-76
2023/01/27 00:09:44;;;;;;;6.78;3.20;;;;;;;;;;6121832;23;20064;-76
2023/01/27 00:15:10;;;;;;;10.18;3.50;;;;;;;;;;6091621;23;20149;-60
2023/01/27 00:17:44;;;;;;;10.10;3.28;;;;;;;;;;6087046;23;20052;-60
2023/01/27 00:24:34;;;;;;;13.38;3.40;;;;;;;;;;6089103;23;20026;-60
2023/01/27 00:25:59;;;;;;;4.93;2.40;;;;;;;;;;6086423;23;20022;-60
2023/01/27 00:28:30;;;;;;;11.15;2.72;;;;;;;;;;6088745;23;20389;-60
2023/01/27 00:30:57;;;;;;;7.00;2.55;;;;;;;;;;6087550;23;20026;-61
2023/01/27 00:33:31;;;;;;;8.75;2.75;;;;;;;;;;6087895;23;20456;-61
2023/01/27 00:36:03;;;;;;;9.68;2.95;;;;;;;;;;6087629;23;20026;-62
2023/01/27 00:38:39;;;;;;;8.77;3.85;;;;;;;;;;6087874;23;20036;-62
2023/01/27 00:41:20;;;;;;;12.13;3.78;;;;;;;;;;6088013;23;20026;-62
2023/01/27 00:43:54;;;;;;;14.15;3.88;;;;;;;;;;6089896;23;20029;-62
2023/01/27 00:46:22;;;;;;;9.95;3.65;;;;;;;;;;6088846;23;20050;-63
2023/01/27 00:48:53;;;;;;;8.80;3.60;;;;;;;;;;6087897;23;20026;-62
2023/01/27 00:51:26;;;;;;;8.10;3.27;;;;;;;;;;6089607;23;20030;-59
2023/01/27 00:53:53;;;;;;;16.77;5.15;;;;;;;;;;6088830;23;20386;-62
2023/01/27 00:56:28;;;;;;;11.50;3.70;;;;;;;;;;6087818;23;20058;-62
2023/01/27 00:58:55;;;;;;;7.55;3.28;;;;;;;;;;6090066;23;20022;-62
2023/01/27 01:01:28;;;;;;;7.10;3.25;;;;;;;;;;6087798;23;20022;-62
2023/01/27 01:03:57;;;;;;;11.18;4.40;;;;;;;;;;6089004;23;20032;-62
2023/01/27 01:06:24;;;;;;;9.88;3.38;;;;;;;;;;6083753;23;20030;-62
2023/01/27 01:08:58;;;;;;;13.75;3.55;;;;;;;;;;6085847;23;20018;-62
2023/01/27 01:11:25;;;;;;;;;;;;;;;;;;6089217;23;20033;-53
2023/01/27 01:14:00;;;;;;;10.35;3.63;;;;;;;;;;6088093;23;19984;-68
2023/01/27 01:16:33;;;;;;;14.68;3.53;;;;;;;;;;6083239;23;20112;-66
2023/01/27 01:19:08;;;;;;;10.48;3.72;;;;;;;;;;6114256;23;20018;-66
2023/01/27 01:21:36;;;;;;;11.00;3.80;;;;;;;;;;6147561;23;20026;-67
2023/01/27 01:24:06;;;;;;;11.95;4.10;;;;;;;;;;6144720;23;20400;-66
2023/01/27 01:26:40;;;;;;;11.20;4.25;;;;;;;;;;6147513;23;20021;-66
2023/01/27 01:29:08;;;;;;;10.50;3.88;;;;;;;;;;6147910;23;20108;-50
2023/01/27 01:31:35;;;;;;;9.43;3.65;;;;;;;;;;6146246;23;20419;-67
2023/01/27 01:34:09;;;;;;;12.05;3.90;;;;;;;;;;6146714;23;20088;-67
2023/01/27 01:36:36;;;;;;;8.55;3.30;;;;;;;;;;6150336;23;20045;-66
2023/01/27 01:39:09;;;;;;;12.25;3.70;;;;;;;;;;6146314;23;20336;-66
2023/01/27 01:41:36;;;;;;;7.10;2.90;;;;;;;;;;6149659;23;20022;-66
2023/01/27 01:44:20;;;;;;;12.88;3.33;;;;;;;;;;6123145;23;20108;-65
2023/01/27 01:46:55;;;;;;;11.18;4.00;;;;;;;;;;6148025;23;20486;-73
2023/01/27 01:49:24;;;;;;;12.15;3.90;;;;;;;;;;6147355;23;20021;-60
2023/01/27 01:52:04;;;;;;;9.80;3.60;;;;;;;;;;6150572;23;20100;-60
2023/01/27 01:54:34;;;;;;;11.05;3.63;;;;;;;;;;6147940;23;20021;-61
2023/01/27 01:57:09;;;;;;;8.63;3.47;;;;;;;;;;6149586;23;20542;-61
2023/01/27 01:59:39;;;;;;;8.30;3.75;;;;;;;;;;6149748;23;20457;-60
2023/01/27 02:02:13;;;;;;;13.23;3.70;;;;;;;;;;6149914;23;20125;-61
2023/01/27 02:04:46;;;;;;;7.55;3.35;;;;;;;;;;6147646;23;20333;-45
2023/01/27 02:07:23;;;;;;;9.27;3.10;;;;;;;;;;6148656;23;20113;-59
2023/01/27 02:09:55;;;;;;;6.63;3.25;;;;;;;;;;6148128;23;20029;-59
2023/01/27 02:12:30;;;;;;;10.25;3.10;;;;;;;;;;6144020;23;20026;-60
2023/01/27 02:14:57;;;;;;;7.72;2.97;;;;;;;;;;6147348;23;20036;-59
2023/01/27 02:17:24;;;;;;;7.50;2.97;;;;;;;;;;6112927;23;20053;-60
2023/01/27 02:20:05;;;;;;;9.45;3.08;;;;;;;;;;6088668;23;20481;-59
2023/01/27 02:22:39;;;;;;;8.10;3.20;;;;;;;;;;6089942;23;20030;-58
2023/01/27 02:25:33;;;;;;;7.15;2.72;;;;;;;;;;6089532;23;20030;-48
2023/01/27 02:28:04;;;;;;;10.70;3.15;;;;;;;;;;6080241;23;20101;-51
2023/01/27 02:30:37;;;;;;;15.10;4.15;;;;;;;;;;6089387;23;20579;-50
2023/01/27 02:33:10;;;;;;;7.10;3.30;;;;;;;;;;6086503;23;20053;-51
2023/01/27 02:35:48;;;;;;;9.93;3.38;;;;;;;;;;6090657;23;20504;-49
2023/01/27 02:38:17;;;;;;;8.32;3.42;;;;;;;;;;6085976;23;20579;-49
2023/01/27 02:40:52;;;;;;;8.23;3.42;;;;;;;;;;6089769;23;20044;-52
2023/01/27 02:43:25;;;;;;;7.90;3.17;;;;;;;;;;6090329;23;20050;-77
2023/01/27 02:45:59;;;;;;;7.32;3.15;;;;;;;;;;6089546;23;20053;-59
2023/01/27 02:48:27;;;;;;;7.80;2.60;;;;;;;;;;6087763;23;20038;-59
2023/01/27 02:50:54;;;;;;;;;;;;;;;;;;6091665;23;20060;-59
2023/01/27 02:53:27;;;;;;;5.43;2.50;;;;;;;;;;6088685;23;20414;-59
2023/01/27 02:55:54;;;;;;;7.07;2.80;;;;;;;;;;6089268;23;20141;-58
2023/01/27 02:58:28;;;;;;;9.07;2.85;;;;;;;;;;6089886;23;20026;-59
2023/01/27 03:00:56;;;;;;;11.77;3.15;;;;;;;;;;6088648;23;20113;-45
2023/01/27 03:03:23;;;;;;;12.75;3.15;;;;;;;;;;6088199;23;20398;-76
2023/01/27 03:05:56;;;;;;;7.60;2.92;;;;;;;;;;6089770;23;20032;-75
2023/01/27 03:08:23;;;;;;;7.32;2.75;;;;;;;;;;6088193;23;20058;-72
2023/01/27 03:10:57;;;;;;;9.20;2.70;;;;;;;;;;6089746;23;20128;-76
2023/01/27 03:13:26;;;;;;;9.60;3.08;;;;;;;;;;6089843;23;20479;-75
2023/01/27 03:18:55;;;;;;;6.72;3.20;;;;;;;;;;6118664;23;20482;-46
2023/01/27 03:21:22;;;;;;;8.82;2.97;;;;;;;;;;6119270;23;20026;-66
2023/01/27 03:23:56;;;;;;;7.30;2.55;;;;;;;;;;6118545;23;20029;-66
2023/01/27 03:26:23;;;;;;;6.53;3.10;;;;;;;;;;6092107;23;20029;-64
2023/01/27 03:31:43;;;;;;;10.63;2.60;;;;;;;;;;6118945;23;20112;-65
2023/01/27 03:34:18;;;;;;;5.35;2.40;;;;;;;;;;6137082;23;20029;-66
2023/01/27 03:48:01;;;;;;;4.93;2.33;;;;;;;;;;6148686;23;20025;-66
2023/01/27 03:50:42;;;;;;;8.67;3.13;;;;;;;;;;6148194;23;20108;-66
2023/01/27 03:53:10;;;;;;;6.13;2.60;;;;;;;;;;6147634;23;20790;-66
2023/01/27 03:55:43;;;;;;;4.28;2.30;;;;;;;;;;6140804;23;20423;-47
2023/01/27 03:58:17;;;;;;;5.75;2.25;;;;;;;;;;6147638;23;20088;-60
2023/01/27 04:00:52;;;;;;;6.38;2.65;;;;;;;;;;6144488;23;20132;-60
2023/01/27 04:09:00;;;;;;;5.32;2.40;;;;;;;;;;6147642;23;20024;-60
2023/01/27 04:14:19;;;;;;;5.15;2.45;;;;;;;;;;6147717;23;20100;-59
2023/01/27 04:17:02;;;;;;;11.10;2.53;;;;;;;;;;6134348;23;20469;-66
2023/01/27 04:19:29;;;;;;;7.90;2.40;;;;;;;;;;6088292;23;20077;-67
2023/01/27 04:22:02;;;;;;;9.98;2.80;;;;;;;;;;6089042;23;20022;-66
2023/01/27 04:24:30;;;;;;;6.32;2.50;;;;;;;;;;6088470;23;20034;-66
2023/01/27 04:27:08;;;;;;;6.93;2.50;;;;;;;;;;6086424;23;20066;-67
2023/01/27 04:29:36;;;;;;;8.50;2.97;;;;;;;;;;6087157;23;20022;-66
2023/01/27 04:32:05;;;;;;;5.37;2.40;;;;;;;;;;6089546;23;20108;-59
2023/01/27 04:34:39;;;;;;;7.27;2.30;;;;;;;;;;6088512;23;20097;-76
2023/01/27 04:37:07;;;;;;;10.23;2.65;;;;;;;;;;6088012;23;20423;-78
2023/01/27 04:39:40;;;;;;;5.05;2.42;;;;;;;;;;6087917;23;20029;-77
2023/01/27 04:42:08;;;;;;;4.85;2.40;;;;;;;;;;6091195;23;20427;-74
2023/01/27 04:44:35;;;;;;;5.68;2.25;;;;;;;;;;6088265;23;20468;-76
2023/01/27 04:47:08;;;;;;;6.25;2.40;;;;;;;;;;6089976;23;20061;-74
2023/01/27 04:49:35;;;;;;;4.88;2.38;;;;;;;;;;6088628;23;20330;-53
2023/01/27 04:52:03;;;;;;;6.78;2.30;;;;;;;;;;6087799;23;20022;-59
2023/01/27 04:54:36;;;;;;;7.07;3.03;;;;;;;;;;6087791;23;20061;-76
2023/01/27 04:57:04;;;;;;;7.20;2.35;;;;;;;;;;6088938;23;20030;-72
2023/01/27 04:59:37;;;;;;;9.50;2.60;;;;;;;;;;6088425;23;20435;-76
2023/01/27 05:02:05;;;;;;;4.25;2.20;;;;;;;;;;6089708;23;20025;-74
2023/01/27 05:04:32;;;;;;;9.73;3.22;;;;;;;;;;6089958;23;20026;-77
2023/01/27 05:07:06;;;;;;;5.47;2.20;;;;;;;;;;6091166;23;20029;-75
2023/01/27 05:09:33;;;;;;;9.02;2.40;;;;;;;;;;6087989;23;20062;-60
2023/01/27 05:12:07;;;;;;;8.25;2.30;;;;;;;;;;6088849;23;20074;-57
2023/01/27 05:14:35;;;;;;;5.70;2.03;;;;;;;;;;6088949;23;20019;-57
2023/01/27 05:17:02;;;;;;;;;;;;;;;;;;6096360;23;20595;-54
2023/01/27 05:19:42;;;;;;;3.87;1.63;;;;;;;;;;6115179;23;19927;-57
2023/01/27 05:22:10;;;;;;;7.40;2.40;;;;;;;;;;6118105;23;20108;-58
2023/01/27 05:24:43;;;;;;;4.40;1.80;;;;;;;;;;6117359;23;20025;-57
2023/01/27 05:27:11;;;;;;;;;;;;;;;;;;6119392;23;20068;-51
2023/01/27 05:29:38;;;;;;;6.83;2.53;;;;;;;;;;6118266;23;19953;-61
2023/01/27 05:32:11;;;;;;;6.00;2.30;;;;;;;;;;6118371;23;20022;-60
2023/01/27 05:34:38;;;;;;;4.60;2.28;;;;;;;;;;6114402;23;20594;-61
2023/01/27 05:37:12;;;;;;;4.60;2.00;;;;;;;;;;6116218;23;20109;-60
2023/01/27 05:39:40;;;;;;;;;;;;;;;;;;6114897;23;20037;-60
2023/01/27 05:42:07;;;;;;;4.60;2.03;;;;;;;;;;6114496;23;19987;-60
2023/01/27 05:44:40;;;;;;;5.00;1.80;;;;;;;;;;6113200;23;20049;-60
2023/01/27 05:47:07;;;;;;;3.33;1.80;;;;;;;;;;6115777;23;20558;-66
2023/01/27 05:49:41;;;;;;;6.55;1.90;;;;;;;;;;6116054;23;20097;-58
2023/01/27 05:52:08;;;;;;;5.07;1.92;;;;;;;;;;6119164;23;20065;-59
2023/01/27 05:54:36;;;;;;;4.25;1.83;;;;;;;;;;6114439;23;20329;-59
2023/01/27 05:57:09;;;;;;;5.97;2.20;;;;;;;;;;6114888;23;20101;-59
2023/01/27 05:59:36;;;;;;;5.10;2.00;;;;;;;;;;6118406;23;20025;-59
2023/01/27 06:02:04;;;;;;;7.50;1.92;;;;;;;;;;6117858;23;20377;-58
2023/01/27 06:04:37;;;;;;;7.50;3.13;;;;;;;;;;6118451;23;20022;-48
2023/01/27 06:07:04;;;;;;;3.47;2.05;;;;;;;;;;6118880;23;20145;-58
2023/01/27 06:09:38;;;;;;;5.73;2.53;;;;;;;;;;6117787;23;20072;-59
2023/01/27 06:12:06;;;;;;;5.35;2.00;;;;;;;;;;6117969;23;20057;-59
2023/01/27 06:14:33;;;;;;;3.20;1.85;;;;;;;;;;6118749;23;20101;-60
2023/01/27 06:17:19;;;;;;;6.00;2.20;;;;;;;;;;6117807;23;20064;-60
2023/01/27 06:19:53;;;;;;;6.20;2.40;;;;;;;;;;6116812;23;20022;-59
2023/01/27 06:22:27;;;;;;;4.87;2.20;;;;;;;;;;6118328;23;20069;-80
2023/01/27 06:24:55;;;;;;;4.60;1.80;;;;;;;;;;6118998;23;20423;-58
2023/01/27 06:27:22;;;;;;;;;;;;;;;;;;6119838;23;20028;-59
2023/01/27 06:29:55;;;;;;;5.47;1.83;;;;;;;;;;6117949;23;19944;-57
2023/01/27 06:32:22;;;;;;;7.75;1.92;;;;;;;;;;6119389;23;20105;-58
2023/01/27 06:34:57;;;;;;;8.67;2.70;;;;;;;;;;6119002;23;20072;-59
2023/01/27 06:37:24;;;;;;;5.33;1.90;;;;;;;;;;6119509;23;20036;-57
2023/01/27 06:39:51;;;;;;;6.45;2.38;;;;;;;;;;6118905;23;20030;-58
2023/01/27 06:42:24;;;;;;;7.37;2.90;;;;;;;;;;6118048;23;20615;-45
2023/01/27 06:44:51;;;;;;;7.70;2.10;;;;;;;;;;6119037;23;20024;-73
2023/01/27 06:47:26;;;;;;;6.30;2.00;;;;;;;;;;6119425;23;20104;-73
2023/01/27 06:49:53;;;;;;;10.50;2.53;;;;;;;;;;6117047;23;20032;-73
2023/01/27 06:52:20;;;;;;;6.13;1.95;;;;;;;;;;6119272;23;20109;-73
2023/01/27 06:54:54;;;;;;;3.63;1.80;;;;;;;;;;6119112;23;20101;-73
2023/01/27 06:57:21;;;;;;;9.88;2.08;;;;;;;;;;6118194;23;20029;-74
2023/01/27 06:59:48;;;;;;;5.82;1.58;;;;;;;;;;6118539;23;20244;-48
2023/01/27 07:02:22;;;;;;;2.33;1.57;;;;;;;;;;6095197;23;20029;-60
2023/01/27 07:04:49;;;;;;;6.95;1.90;;;;;;;;;;6117472;23;20045;-60
2023/01/27 07:07:16;;;;;;;4.72;1.80;;;;;;;;;;6119772;23;20029;-60
2023/01/27 07:09:49;;;;;;;2.87;1.47;;;;;;;;;;6118462;23;20097;-60
2023/01/27 07:12:19;;;;;;;4.97;2.10;;;;;;;;;;6118229;23;20124;-60
2023/01/27 07:14:52;;;;;;;3.23;2.20;;;;;;;;;;6118575;23;20081;-60
2023/01/27 07:17:32;;;;;;;3.67;1.87;;;;;;;;;;5776781;23;8071089;-77
2023/01/27 07:20:08;;;;;;;4.50;2.10;;;;;;;;;;6119643;23;20097;-60
2023/01/27 07:22:35;;;;;;;2.83;1.53;;;;;;;;;;6120281;23;20551;-59
2023/01/27 07:25:03;;;;;;;5.32;2.25;;;;;;;;;;6120774;23;20045;-60
2023/01/27 07:27:36;;;;;;;5.20;1.73;;;;;;;;;;6119844;23;20468;-60
2023/01/27 07:30:04;;;;;;;2.65;1.60;;;;;;;;;;6119152;23;20105;-60
2023/01/27 07:32:38;;;;;;;4.67;1.93;;;;;;;;;;6120378;23;20021;-60
2023/01/27 07:35:05;;;;;;;7.65;1.88;;;;;;;;;;6120486;23;20057;-58
2023/01/27 07:37:33;;;;;;;2.37;1.43;;;;;;;;;;6119266;23;20897;-57
2023/01/27 07:40:07;;;;;;;5.07;1.90;;;;;;;;;;6119755;23;20096;-76
2023/01/27 07:42:34;;;;;;;6.13;2.00;;;;;;;;;;6120264;23;20022;-75
2023/01/27 07:45:08;;;;;;;4.80;1.80;;;;;;;;;;6119028;23;20125;-74
2023/01/27 07:47:35;;;;;;;5.23;1.67;;;;;;;;;;6119719;23;20427;-76
2023/01/27 07:50:02;;;;;;;7.03;2.15;;;;;;;;;;6119972;23;20380;-77
2023/01/27 07:52:37;;;;;;;3.77;1.60;;;;;;;;;;6118847;23;20030;-75
2023/01/27 07:55:04;;;;;;;3.78;1.90;;;;;;;;;;6119215;23;20125;-59
2023/01/27 07:57:39;;;;;;;5.65;1.63;;;;;;;;;;6119731;23;20496;-47
2023/01/27 08:00:06;;;;;;;2.33;1.73;;;;;;;;;;6119193;23;20029;-45
2023/01/27 08:02:34;;;;;;;3.30;1.70;;;;;;;;;;6119222;23;20393;-48
2023/01/27 08:05:08;;;;;;;4.57;1.73;;;;;;;;;;6118880;23;20022;-45
2023/01/27 08:07:35;;;;;;;3.07;1.53;;;;;;;;;;6118593;23;20454;-45
2023/01/27 08:10:09;;;;;;;2.67;1.80;;;;;;;;;;6118760;23;20133;-43
2023/01/27 08:12:37;;;;;;;3.00;1.37;;;;;;;;;;6119811;23;20492;-59
2023/01/27 08:15:05;;;;;;;2.85;1.58;;;;;;;;;;6118310;23;20057;-57
2023/01/27 08:17:58;;;;;;;4.38;1.95;;;;;;;;;;6118576;23;20026;-58
2023/01/27 08:20:32;;;;;;;4.47;2.03;;;;;;;;;;6119985;23;20044;-57
2023/01/27 08:23:06;;;;;;;3.88;2.03;;;;;;;;;;6118364;23;20030;-58
2023/01/27 08:25:34;;;;;;;6.20;2.20;;;;;;;;;;6093322;23;20018;-57
2023/01/27 08:28:01;;;;;;;5.13;1.80;;;;;;;;;;6120276;23;20101;-57
2023/01/27 08:30:34;;;;;;;3.40;2.00;;;;;;;;;;6118400;23;20025;-60
2023/01/27 08:33:02;;;;;;;5.13;1.80;;;;;;;;;;6118803;23;20029;-59
2023/01/27 08:35:29;;;;;;;5.57;1.95;;;;;;;;;;6118685;23;20072;-60
2023/01/27 08:38:02;;;;;;;4.93;1.90;;;;;;;;;;6119165;23;20064;-60
2023/01/27 08:40:29;;;;;;;2.22;1.52;;;;;;;;;;6117836;23;20093;-60
2023/01/27 08:43:03;;;;;;;6.18;1.70;;;;;;;;;;6119164;23;20464;-60
2023/01/27 08:45:31;;;;;;;2.30;1.58;;;;;;;;;;6118217;23;20025;-60
2023/01/27 08:47:58;;;;;;;5.45;2.20;;;;;;;;;;6119698;23;20093;-60
2023/01/27 08:50:32;;;;;;;9.23;1.90;;;;;;;;;;6118699;23;20065;-49
2023/01/27 08:53:00;;;;;;;5.13;2.00;;;;;;;;;;6119769;23;20946;-66
2023/01/27 08:55:33;;;;;;;2.73;1.80;;;;;;;;;;6118426;23;20065;-66
2023/01/27 08:58:01;;;;;;;4.20;2.20;;;;;;;;;;6117863;23;20036;-66
2023/01/27 09:00:28;;;;;;;4.05;1.67;;;;;;;;;;6119410;23;20045;-66
2023/01/27 09:03:01;;;;;;;4.32;1.80;;;;;;;;;;6117557;23;20026;-66
2023/01/27 09:05:29;;;;;;;4.00;2.03;;;;;;;;;;6118906;23;20097;-66
2023/01/27 09:07:56;;;;;;;6.47;2.38;;;;;;;;;;6118399;23;20520;-66
2023/01/27 09:10:30;;;;;;;8.57;2.40;;;;;;;;;;6118463;23;20789;-60
2023/01/27 09:12:57;;;;;;;4.55;2.17;;;;;;;;;;6094484;23;20101;-59
2023/01/27 09:15:24;;;;;;;7.15;3.03;;;;;;;;;;6118254;23;20072;-59
2023/01/27 09:17:58;;;;;;;4.50;2.33;;;;;;;;;;6117233;23;20034;-59
2023/01/27 09:20:35;;;;;;;6.28;2.33;;;;;;;;;;6118516;23;20431;-59
2023/01/27 09:23:04;;;;;;;3.97;2.03;;;;;;;;;;6118744;23;20026;-59
2023/01/27 09:25:31;;;;;;;5.70;2.00;;;;;;;;;;6118740;23;20022;-59
2023/01/27 09:28:04;;;;;;;3.92;2.10;;;;;;;;;;6119612;23;20028;-59
2023/01/27 09:30:31;;;;;;;5.22;2.22;;;;;;;;;;6118408;23;20060;-59
2023/01/27 09:33:07;;;;;;;3.90;1.80;;;;;;;;;;6118408;23;20025;-58
2023/01/27 09:35:37;;;;;;;5.00;1.85;;;;;;;;;;6118697;23;20022;-58
2023/01/27 09:38:06;;;;;;;4.95;2.15;;;;;;;;;;6118489;23;20397;-58
2023/01/27 09:40:58;;;;;;;5.10;2.20;;;;;;;;;;6118437;23;20022;-58
2023/01/27 09:43:28;;;;;;;6.43;2.40;;;;;;;;;;6118790;23;20372;-58
2023/01/27 09:46:08;;;;;;;4.95;2.60;;;;;;;;;;6118275;23;20033;-59
2023/01/27 09:48:50;;;;;;;3.40;2.28;;;;;;;;;;6116928;23;20026;-52
2023/01/27 09:51:35;;;;;;;3.67;2.42;;;;;;;;;;6107842;23;20097;-51
2023/01/27 09:54:02;;;;;;;8.60;2.47;;;;;;;;;;6118529;23;20060;-51
2023/01/27 09:56:46;;;;;;;6.20;2.45;;;;;;;;;;6120174;23;20052;-50
2023/01/27 09:59:39;;;;;;;6.38;3.60;;;;;;;;;;6121549;23;20060;-53
2023/01/27 10:02:12;;;;;;;;;;;;;;;;;;6121528;23;20097;-74
2023/01/27 10:04:45;;;;;;;4.13;2.40;;;;;;;;;;6120303;23;20007;-58
2023/01/27 10:07:38;;;;;;;5.40;2.20;;;;;;;;;;6109531;23;20030;-77
2023/01/27 10:10:20;;;;;;;5.53;2.65;;;;;;;;;;6120530;23;20032;-76
2023/01/27 10:12:54;;;;;;;7.47;2.90;;;;;;;;;;6121730;23;20053;-75
2023/01/27 10:15:21;;;;;;;8.80;2.63;;;;;;;;;;6120520;23;20045;-75
2023/01/27 10:18:32;;;;;;;7.55;2.50;;;;;;;;;;6120211;23;20307;-74
2023/01/27 10:21:12;;;;;;;5.10;2.60;;;;;;;;;;6119194;23;20022;-47
2023/01/27 10:23:54;;;;;;;4.22;2.28;;;;;;;;;;6119858;23;20028;-61
2023/01/27 10:26:41;;;;;;;6.05;2.10;;;;;;;;;;6121004;23;20172;-61
2023/01/27 10:29:23;;;;;;;9.95;2.65;;;;;;;;;;6119842;23;20053;-61
2023/01/27 10:32:03;;;;;;;4.45;2.60;;;;;;;;;;6120238;23;20022;-61
2023/01/27 10:34:50;;;;;;;6.50;2.30;;;;;;;;;;6119344;23;20100;-61
2023/01/27 10:37:25;;;;;;;3.85;2.13;;;;;;;;;;6120313;23;20030;-62
2023/01/27 10:40:11;;;;;;;5.03;2.55;;;;;;;;;;6119709;23;20113;-53
2023/01/27 10:42:49;;;;;;;4.97;2.40;;;;;;;;;;6120156;23;20021;-62
2023/01/27 10:45:40;;;;;;;7.32;2.60;;;;;;;;;;6120248;23;20104;-62
2023/01/27 10:48:13;;;;;;;7.38;2.70;;;;;;;;;;6121057;23;20026;-62
2023/01/27 10:50:56;;;;;;;4.30;2.20;;;;;;;;;;6119886;23;20129;-62
2023/01/27 10:53:40;;;;;;;4.90;2.17;;;;;;;;;;6120119;23;20340;-62
2023/01/27 10:56:13;;;;;;;9.10;3.17;;;;;;;;;;6120674;23;20101;-63
2023/01/27 10:58:45;;;;;;;6.30;3.03;;;;;;;;;;6119643;23;20030;-62
2023/01/27 11:01:24;;;;;;;8.93;3.92;;;;;;;;;;6138104;23;20577;-51
2023/01/27 11:03:57;;;;;;;5.07;2.42;;;;;;;;;;6149995;23;20924;-52
2023/01/27 11:06:34;;;;;;;8.63;3.47;;;;;;;;;;6147771;23;20025;-52
2023/01/27 11:09:05;;;;;;;7.57;3.05;;;;;;;;;;6149616;23;20108;-49
2023/01/27 11:11:43;;;;;;;10.68;2.85;;;;;;;;;;6149081;23;20445;-51
2023/01/27 11:14:21;;;;;;;6.85;3.22;;;;;;;;;;6124160;23;20479;-50
2023/01/27 11:16:57;;;;;;;9.65;2.83;;;;;;;;;;6148167;23;20053;-59
2023/01/27 11:19:45;;;;;;;10.02;4.13;;;;;;;;;;6094541;23;20061;-58
2023/01/27 11:22:26;;;;;;;10.18;3.53;;;;;;;;;;6091053;23;20503;-58
2023/01/27 11:25:16;;;;;;;10.40;4.15;;;;;;;;;;6090553;23;20448;-58
2023/01/27 11:28:05;;;;;;;12.00;4.03;;;;;;;;;;6090658;23;20074;-60
2023/01/27 11:30:42;;;;;;;13.02;4.22;;;;;;;;;;6091086;23;20093;-59
2023/01/27 11:33:22;;;;;;;9.25;3.90;;;;;;;;;;6085473;23;20034;-59
2023/01/27 11:35:50;;;;;;;11.73;4.40;;;;;;;;;;6089891;23;20748;-79
2023/01/27 11:38:25;;;;;;;13.30;3.90;;;;;;;;;;6087423;23;20033;-48
2023/01/27 11:40:52;;;;;;;;;;;;;;;;;;6090121;23;20018;-49
2023/01/27 11:43:26;;;;;;;10.75;4.47;;;;;;;;;;6090626;23;19921;-51
2023/01/27 11:45:57;;;;;;;9.48;4.25;;;;;;;;;;6089513;23;20018;-48
2023/01/27 11:48:57;;;;;;;9.93;3.80;;;;;;;;;;6090007;23;20097;-49
2023/01/27 11:51:27;;;;;;;15.85;4.07;;;;;;;;;;6087550;23;20030;-48
2023/01/27 11:54:08;;;;;;;13.85;4.40;;;;;;;;;;6089526;23;20026;-60
2023/01/27 11:56:36;;;;;;;12.45;3.75;;;;;;;;;;6089759;23;20420;-59
2023/01/27 11:59:14;;;;;;;10.05;4.10;;;;;;;;;;6089727;23;20472;-60
2023/01/27 12:01:48;;;;;;;12.43;4.13;;;;;;;;;;6089642;23;20380;-59
2023/01/27 12:04:44;;;;;;;11.07;3.92;;;;;;;;;;6089622;23;20029;-60
2023/01/27 12:07:16;;;;;;;10.82;3.63;;;;;;;;;;6065642;23;20037;-60
2023/01/27 12:09:50;;;;;;;10.35;3.60;;;;;;;;;;6088480;23;20124;-59
2023/01/27 12:12:20;;;;;;;7.53;3.42;;;;;;;;;;6091205;23;20022;-69
2023/01/27 12:14:54;;;;;;;9.48;2.70;;;;;;;;;;6089824;23;20445;-80
2023/01/27 12:17:37;;;;;;;10.15;3.50;;;;;;;;;;6072810;23;20033;-78
2023/01/27 12:20:06;;;;;;;10.00;3.90;;;;;;;;;;6117764;23;20025;-79
2023/01/27 12:22:47;;;;;;;8.90;2.65;;;;;;;;;;6148430;23;20490;-83
2023/01/27 12:25:16;;;;;;;8.02;2.83;;;;;;;;;;6149335;23;20061;-80
2023/01/27 12:27:52;;;;;;;6.35;2.60;;;;;;;;;;6147930;23;20029;-80
2023/01/27 12:30:21;;;;;;;7.07;2.88;;;;;;;;;;6149102;23;20022;-59
2023/01/27 12:32:55;;;;;;;5.28;2.67;;;;;;;;;;6148980;23;20021;-59
2023/01/27 12:35:34;;;;;;;4.70;2.47;;;;;;;;;;6148289;23;20092;-59
2023/01/27 12:38:16;;;;;;;4.70;2.15;;;;;;;;;;6142798;23;20040;-59
2023/01/27 12:40:44;;;;;;;3.72;1.77;;;;;;;;;;6148440;23;20022;-59
2023/01/27 12:43:19;;;;;;;5.70;2.60;;;;;;;;;;6145506;23;20080;-60
2023/01/27 12:46:02;;;;;;;4.40;2.00;;;;;;;;;;6149409;23;20254;-59
2023/01/27 12:48:43;;;;;;;6.82;1.83;;;;;;;;;;6148121;23;20049;-55
2023/01/27 12:51:15;;;;;;;6.25;2.00;;;;;;;;;;6148152;23;20076;-59
2023/01/27 12:53:50;;;;;;;6.72;2.20;;;;;;;;;;6147945;23;20063;-59
2023/01/27 12:56:19;;;;;;;5.05;2.17;;;;;;;;;;6148857;23;20104;-58
2023/01/27 12:58:48;;;;;;;3.05;1.65;;;;;;;;;;6147882;23;20060;-58
2023/01/27 13:01:29;;;;;;;4.05;1.75;;;;;;;;;;6148016;23;20125;-58
2023/01/27 13:04:11;;;;;;;3.78;1.80;;;;;;;;;;6149254;23;20092;-58
2023/01/27 13:06:50;;;;;;;5.35;2.15;;;;;;;;;;6147917;23;20103;-60
2023/01/27 13:09:23;;;;;;;4.45;1.67;;;;;;;;;;6147013;23;20419;-48
2023/01/27 13:11:58;;;;;;;3.70;2.10;;;;;;;;;;6146948;23;20108;-47
2023/01/27 13:14:34;;;;;;;4.93;1.90;;;;;;;;;;6148616;23;20018;-52
2023/01/27 13:17:27;;;;;;;4.13;2.00;;;;;;;;;;6147952;23;20033;-48
2023/01/27 13:20:19;;;;;;;6.38;2.30;;;;;;;;;;6090959;23;20121;-47
2023/01/27 13:23:05;;;;;;;4.53;2.55;;;;;;;;;;6089765;23;20037;-48
2023/01/27 13:25:37;;;;;;;6.95;2.25;;;;;;;;;;6085539;23;20101;-46
2023/01/27 13:28:14;;;;;;;7.97;2.60;;;;;;;;;;6089814;23;20022;-74
2023/01/27 13:30:45;;;;;;;4.13;2.10;;;;;;;;;;6086905;23;20022;-73
2023/01/27 13:33:42;;;;;;;5.20;2.28;;;;;;;;;;6092428;23;20022;-73
2023/01/27 13:36:12;;;;;;;8.98;2.85;;;;;;;;;;6089629;23;20032;-73
2023/01/27 13:38:52;;;;;;;8.27;2.50;;;;;;;;;;6091645;23;20058;-73
2023/01/27 13:41:28;;;;;;;4.65;2.47;;;;;;;;;;6091313;23;20018;-73
2023/01/27 13:44:08;;;;;;;5.78;2.53;;;;;;;;;;6090902;23;20100;-60
2023/01/27 13:46:43;;;;;;;4.47;2.35;;;;;;;;;;6091856;23;20097;-74
2023/01/27 13:49:23;;;;;;;4.72;2.45;;;;;;;;;;6091079;23;20030;-74
2023/01/27 13:51:56;;;;;;;6.35;3.03;;;;;;;;;;6089998;23;20026;-73
2023/01/27 13:54:24;;;;;;;6.22;2.72;;;;;;;;;;6090901;23;20064;-74
2023/01/27 13:56:57;;;;;;;8.38;2.80;;;;;;;;;;6091145;23;20408;-74
2023/01/27 13:59:45;;;;;;;6.00;2.88;;;;;;;;;;6091305;23;20068;-72
2023/01/27 14:02:29;;;;;;;7.00;2.83;;;;;;;;;;6051286;23;20533;-64
2023/01/27 14:05:02;;;;;;;8.55;2.50;;;;;;;;;;6091952;23;20827;-45
2023/01/27 14:07:43;;;;;;;4.60;2.45;;;;;;;;;;6091311;23;20025;-45
2023/01/27 14:10:15;;;;;;;6.80;2.60;;;;;;;;;;6091611;23;20046;-45
2023/01/27 14:12:55;;;;;;;6.20;2.47;;;;;;;;;;6091192;23;20413;-46
2023/01/27 14:15:23;;;;;;;8.10;2.67;;;;;;;;;;6091217;23;20074;-49
2023/01/27 14:18:05;;;;;;;4.35;2.30;;;;;;;;;;6096702;23;20807;-46
2023/01/27 14:20:39;;;;;;;6.55;2.80;;;;;;;;;;6119783;23;20133;-60
2023/01/27 14:23:24;;;;;;;9.13;2.35;;;;;;;;;;6121248;23;20114;-48
2023/01/27 14:25:52;;;;;;;10.93;2.58;;;;;;;;;;6120073;23;20085;-45
2023/01/27 14:28:38;;;;;;;8.25;2.67;;;;;;;;;;6120632;23;20094;-46
2023/01/27 14:31:13;;;;;;;5.85;2.45;;;;;;;;;;6120369;23;20105;-46
2023/01/27 14:33:58;;;;;;;6.38;2.72;;;;;;;;;;6120757;23;20033;-50
2023/01/27 14:36:51;;;;;;;8.50;2.90;;;;;;;;;;6120179;23;20472;-50
2023/01/27 14:39:31;;;;;;;8.27;3.03;;;;;;;;;;6120851;23;20029;-60
2023/01/27 14:42:14;;;;;;;4.93;2.78;;;;;;;;;;6113034;23;20089;-54
2023/01/27 14:44:58;;;;;;;7.97;2.83;;;;;;;;;;6120776;23;20919;-53
2023/01/27 14:47:45;;;;;;;9.32;2.63;;;;;;;;;;6119707;23;20029;-50
2023/01/27 14:50:31;;;;;;;9.40;3.45;;;;;;;;;;6120511;23;20498;-53
2023/01/27 14:53:23;;;;;;;6.65;2.80;;;;;;;;;;6120910;23;20100;-54
2023/01/27 14:56:15;;;;;;;12.85;3.95;;;;;;;;;;6120192;23;20100;-53
2023/01/27 14:58:54;;;;;;;10.10;3.13;;;;;;;;;;6118655;23;20112;-55
2023/01/27 15:01:33;;;;;;;7.28;3.20;;;;;;;;;;6120046;23;20060;-72
2023/01/27 15:04:20;;;;;;;6.53;2.90;;;;;;;;;;6119740;23;20034;-72
2023/01/27 15:07:18;;;;;;;5.60;2.97;;;;;;;;;;6145361;23;20025;-70
2023/01/27 15:10:00;;;;;;;8.60;2.95;;;;;;;;;;6139158;23;20438;-70
2023/01/27 15:12:34;;;;;;;9.13;3.00;;;;;;;;;;6146954;23;20088;-72
2023/01/27 15:15:20;;;;;;;9.52;3.28;;;;;;;;;;6150351;23;20751;-71
2023/01/27 15:18:09;;;;;;;7.40;3.00;;;;;;;;;;6142941;23;20022;-61
2023/01/27 15:21:02;;;;;;;7.60;2.65;;;;;;;;;;6090548;23;20030;-61
2023/01/27 15:23:48;;;;;;;9.48;3.08;;;;;;;;;;6090360;23;20050;-61
2023/01/27 15:26:24;;;;;;;5.57;2.58;;;;;;;;;;6089977;23;20026;-61
2023/01/27 15:28:51;;;;;;;6.88;3.35;;;;;;;;;;6089441;23;20069;-61
2023/01/27 15:31:28;;;;;;;6.43;2.92;;;;;;;;;;6090762;23;20482;-61
2023/01/27 15:34:14;;;;;;;7.60;3.05;;;;;;;;;;6090317;23;20094;-62
2023/01/27 15:37:01;;;;;;;8.48;3.13;;;;;;;;;;6090420;23;20061;-52
2023/01/27 15:39:28;;;;;;;6.70;2.70;;;;;;;;;;6090035;23;20058;-53
2023/01/27 15:42:11;;;;;;;4.22;2.17;;;;;;;;;;6088759;23;20030;-52
2023/01/27 15:45:01;;;;;;;6.00;2.70;;;;;;;;;;6089492;23;20749;-49
2023/01/27 15:47:34;;;;;;;6.85;3.15;;;;;;;;;;6084665;23;20026;-50
2023/01/27 15:50:05;;;;;;;6.90;3.15;;;;;;;;;;6089342;23;20049;-52
2023/01/27 15:52:45;;;;;;;6.50;3.05;;;;;;;;;;6089658;23;20090;-71
2023/01/27 15:55:24;;;;;;;9.50;2.80;;;;;;;;;;6090720;23;20050;-70
2023/01/27 15:58:05;;;;;;;15.20;6.97;;;;;;;;;;6089233;23;20484;-70